Rosel, Missouri
Current Conditions -  °F | °C
As of 4:55 PM on Wednesday 26 Nov 2014 (Local Time) from KFAM Reporting Station
Overcast Overcast  
Wind Chill: 30°   Ceiling: 4100
Heat Index: 34°   Visibility: 10mi
Dew Point: 32°   Wind: 5mph
Humidity: 93%   Direction: 260°W
Pressure: 30.01"   Gusts: NA
Location:  37.6026°N, 90.6627°W
Report Text: KFAM 262255Z AUTO 26004KT 10SM FEW008 BKN041 OVC075 01/00 A3001 RMK AO1
Loading
Personal Weather Stations






























Interactive Weather Map New forecast layout! Learn more

10-Day Weather Forecast

Advertisements
Track Severe Weather on mobile